Time;durP1;ratioP1;P1;durP2;ratioP2;P2;SDS_P1;SDS_P2;PMS_P1;PMS_P2;Temp;Humidity;BMP_temperature;BMP_pressure;BME280_temperature;BME280_humidity;BME280_pressure;Samples;Min_cycle;Max_cycle;Signal;HPM_P1;HPM_P2
2022/06/14 00:00:59;;;;;;;2.00;1.13;;;24.30;44.10;;;;;;5114533;28;20019;-50
2022/06/14 00:03:25;;;;;;;1.55;0.90;;;24.30;44.10;;;;;;5114029;28;20011;-52
2022/06/14 00:06:01;;;;;;;2.13;1.00;;;24.30;44.10;;;;;;5114289;28;20473;-52
2022/06/14 00:08:27;;;;;;;1.40;0.85;;;24.30;44.20;;;;;;5114208;28;20028;-52
2022/06/14 00:10:53;;;;;;;1.08;0.80;;;24.30;44.20;;;;;;5117339;28;20015;-51
2022/06/14 00:13:19;;;;;;;2.10;0.90;;;24.30;44.20;;;;;;5118740;28;20027;-52
2022/06/14 00:15:47;;;;;;;1.30;0.90;;;24.30;44.20;;;;;;5100658;28;20008;-52
2022/06/14 00:18:14;;;;;;;1.33;0.80;;;24.30;44.20;;;;;;5119007;28;20050;-52
2022/06/14 00:20:40;;;;;;;2.47;0.90;;;24.20;44.20;;;;;;5119794;28;20016;-55
2022/06/14 00:23:06;;;;;;;1.38;0.70;;;24.20;44.20;;;;;;5120326;28;20084;-52
2022/06/14 00:25:36;;;;;;;2.55;1.05;;;24.20;44.20;;;;;;5120645;28;20477;-50
2022/06/14 00:28:03;;;;;;;1.65;1.10;;;24.20;44.20;;;;;;5120653;28;20028;-55
2022/06/14 00:30:28;;;;;;;1.45;0.90;;;24.20;44.30;;;;;;5120749;28;20008;-54
2022/06/14 00:32:55;;;;;;;1.60;0.95;;;24.20;44.30;;;;;;5120776;28;20020;-54
2022/06/14 00:35:21;;;;;;;2.00;1.05;;;24.20;44.30;;;;;;5120840;28;20038;-55
2022/06/14 00:37:48;;;;;;;1.88;1.00;;;24.20;44.30;;;;;;5121304;28;20024;-53
2022/06/14 00:40:16;;;;;;;2.35;0.90;;;24.20;44.30;;;;;;5120953;28;20018;-54
2022/06/14 00:42:42;;;;;;;1.75;0.73;;;24.20;44.40;;;;;;5121617;28;20019;-54
2022/06/14 00:45:11;;;;;;;2.75;0.90;;;24.20;44.40;;;;;;5121968;28;20082;-52
2022/06/14 00:48:02;;;;;;;2.30;1.00;;;24.20;44.40;;;;;;5121575;28;20036;-54
2022/06/14 00:50:31;;;;;;;1.77;1.10;;;24.20;44.40;;;;;;5122140;28;20369;-52
2022/06/14 00:52:59;;;;;;;2.13;0.90;;;24.20;44.40;;;;;;5103570;28;20019;-52
2022/06/14 00:55:29;;;;;;;2.08;0.82;;;24.20;44.50;;;;;;5104028;28;20041;-52
2022/06/14 00:58:18;;;;;;;3.28;0.95;;;24.20;44.50;;;;;;5121898;28;20047;-52
2022/06/14 01:01:02;;;;;;;2.03;1.02;;;24.20;44.50;;;;;;5121597;28;20519;-52
2022/06/14 01:03:34;;;;;;;1.65;0.90;;;24.20;44.50;;;;;;5120950;28;20050;-51
2022/06/14 01:06:06;;;;;;;1.38;0.90;;;24.20;44.50;;;;;;5121427;28;20014;-52
2022/06/14 01:08:36;;;;;;;1.73;1.10;;;24.10;44.50;;;;;;5121285;28;20016;-55
2022/06/14 01:11:04;;;;;;;0.95;0.70;;;24.10;44.50;;;;;;5120521;28;20026;-53
2022/06/14 01:13:29;;;;;;;2.33;0.95;;;24.10;44.50;;;;;;5120921;28;20043;-52
2022/06/14 01:15:55;;;;;;;1.40;0.90;;;24.10;44.50;;;;;;5102600;28;20042;-54
2022/06/14 01:18:21;;;;;;;3.70;0.80;;;24.10;44.60;;;;;;5119308;28;20022;-52
2022/06/14 01:20:46;;;;;;;2.17;0.90;;;24.10;44.60;;;;;;5083587;28;20416;-54
2022/06/14 01:23:14;;;;;;;2.35;1.15;;;24.10;44.60;;;;;;5118705;28;20055;-55
2022/06/14 01:25:44;;;;;;;1.95;0.93;;;24.10;44.60;;;;;;5119017;28;20020;-50
2022/06/14 01:28:09;;;;;;;1.38;0.70;;;24.10;44.60;;;;;;5122286;28;20088;-51
2022/06/14 01:30:39;;;;;;;1.67;1.00;;;24.10;44.60;;;;;;5104375;28;20023;-53
2022/06/14 01:33:10;;;;;;;1.83;1.30;;;24.00;44.60;;;;;;5103981;28;20035;-47
2022/06/14 01:35:37;;;;;;;1.60;1.08;;;24.00;44.70;;;;;;5121221;28;20373;-49
2022/06/14 01:38:11;;;;;;;1.95;0.90;;;24.00;44.60;;;;;;5120288;28;20027;-52
2022/06/14 01:40:59;;;;;;;1.58;0.90;;;24.10;44.70;;;;;;5120827;28;20030;-52
2022/06/14 01:43:49;;;;;;;2.08;1.15;;;24.00;44.70;;;;;;5119935;28;20019;-52
2022/06/14 01:46:25;;;;;;;3.60;1.20;;;24.00;44.70;;;;;;5119126;28;20012;-50
2022/06/14 01:52:08;;;;;;;;;;;24.00;44.80;;;;;;5115954;28;20035;-46
2022/06/14 01:54:44;;;;;;;2.03;0.93;;;24.10;44.70;;;;;;5115041;28;19929;-47
2022/06/14 01:57:14;;;;;;;1.35;0.90;;;24.00;44.80;;;;;;5115046;28;20068;-48
2022/06/14 01:59:58;;;;;;;2.40;1.08;;;24.00;44.80;;;;;;5114804;28;20411;-47
2022/06/14 02:02:42;;;;;;;2.10;0.90;;;24.00;44.80;;;;;;5080971;28;20110;-47
2022/06/14 02:05:16;;;;;;;2.40;1.10;;;24.00;44.80;;;;;;5114953;28;20012;-47
2022/06/14 02:07:57;;;;;;;1.30;1.00;;;24.00;44.90;;;;;;5114520;28;20036;-48
2022/06/14 02:10:40;;;;;;;1.73;1.00;;;24.00;44.90;;;;;;5114834;28;20033;-48
2022/06/14 02:13:24;;;;;;;1.85;0.82;;;24.00;45.00;;;;;;5114450;28;20015;-51
2022/06/14 02:16:20;;;;;;;2.70;0.93;;;24.00;45.00;;;;;;5097254;28;20040;-49
2022/06/14 02:18:59;;;;;;;1.67;1.00;;;23.90;45.00;;;;;;5081083;28;20022;-49
2022/06/14 02:21:37;;;;;;;1.80;0.90;;;23.90;44.90;;;;;;5114128;28;20022;-50
2022/06/14 02:24:11;;;;;;;1.40;0.90;;;23.90;45.00;;;;;;5114063;28;20497;-51
2022/06/14 02:26:40;;;;;;;1.67;0.90;;;23.90;45.00;;;;;;5096191;28;20462;-48
2022/06/14 02:29:21;;;;;;;2.58;1.00;;;23.90;45.00;;;;;;5114121;28;20377;-50
2022/06/14 02:31:55;;;;;;;1.85;0.88;;;23.90;45.00;;;;;;5114020;28;20047;-53
2022/06/14 02:34:37;;;;;;;2.97;1.23;;;23.90;45.00;;;;;;5114069;28;20049;-50
2022/06/14 02:37:10;;;;;;;2.33;1.10;;;23.90;45.10;;;;;;5095890;28;20019;-49
2022/06/14 02:39:38;;;;;;;1.83;0.90;;;23.90;45.10;;;;;;5096108;28;20072;-51
2022/06/14 02:42:19;;;;;;;1.92;1.02;;;23.90;45.70;;;;;;5096287;28;20458;-51
2022/06/14 02:44:57;;;;;;;2.47;1.00;;;23.90;45.10;;;;;;5113733;28;20094;-54
2022/06/14 02:47:57;;;;;;;1.95;1.05;;;23.90;45.10;;;;;;5095291;28;20023;-52
2022/06/14 02:50:24;;;;;;;1.70;0.85;;;23.90;45.10;;;;;;5108400;28;20101;-50
2022/06/14 02:53:14;;;;;;;1.65;0.77;;;23.90;45.20;;;;;;5113805;28;20008;-53
2022/06/14 02:55:46;;;;;;;1.42;0.73;;;23.90;45.20;;;;;;5113394;28;20015;-52
2022/06/14 02:58:16;;;;;;;2.15;1.10;;;23.90;45.20;;;;;;5113329;28;20080;-50
2022/06/14 03:00:45;;;;;;;1.40;0.93;;;23.80;45.20;;;;;;5119358;28;20019;-56
2022/06/14 03:03:24;;;;;;;2.13;1.00;;;23.90;45.20;;;;;;5100326;28;20028;-53
2022/06/14 03:06:32;;;;;;;1.20;1.00;;;23.80;45.20;;;;;;5096032;28;20016;-52
2022/06/14 03:09:16;;;;;;;1.08;0.75;;;23.80;45.20;;;;;;5084929;28;20058;-54
2022/06/14 03:12:15;;;;;;;2.15;1.00;;;23.80;45.20;;;;;;5115192;28;20035;-51
2022/06/14 03:14:56;;;;;;;1.92;0.85;;;23.80;45.20;;;;;;5115243;28;20011;-50
2022/06/14 03:17:30;;;;;;;3.92;1.10;;;23.80;45.20;;;;;;5115392;28;20115;-51
2022/06/14 03:20:29;;;;;;;1.35;0.70;;;23.80;45.20;;;;;;5115882;28;20116;-52
2022/06/14 03:23:05;;;;;;;1.80;1.02;;;23.80;45.20;;;;;;5115810;28;20039;-52
2022/06/14 03:25:43;;;;;;;1.92;0.90;;;23.80;45.30;;;;;;5116419;28;20106;-51
2022/06/14 03:28:42;;;;;;;3.25;1.10;;;23.80;45.30;;;;;;5100364;28;20020;-51
2022/06/14 03:31:36;;;;;;;1.00;0.70;;;23.80;45.30;;;;;;5090986;28;20081;-55
2022/06/14 03:34:51;;;;;;;1.48;0.90;;;23.80;45.30;;;;;;5066421;28;20024;-52
2022/06/14 03:37:17;;;;;;;1.77;0.90;;;23.80;45.30;;;;;;5015856;28;20042;-51
2022/06/14 03:39:50;;;;;;;2.53;1.15;;;23.70;45.30;;;;;;4999928;28;20037;-54
2022/06/14 03:42:16;;;;;;;1.30;0.90;;;23.70;45.30;;;;;;5000387;28;20065;-53
2022/06/14 03:44:43;;;;;;;2.00;0.90;;;23.80;45.40;;;;;;5017578;28;20026;-51
2022/06/14 03:47:25;;;;;;;2.45;1.00;;;23.70;45.30;;;;;;5020689;28;20034;-50
2022/06/14 03:50:02;;;;;;;1.52;0.93;;;23.70;45.30;;;;;;5020542;28;20038;-51
2022/06/14 03:52:36;;;;;;;1.80;0.90;;;23.70;45.40;;;;;;5020547;28;20018;-52
2022/06/14 03:55:05;;;;;;;1.85;0.90;;;23.70;45.40;;;;;;5019579;28;20115;-52
2022/06/14 03:57:45;;;;;;;1.73;0.98;;;23.70;45.40;;;;;;5019098;28;20037;-52
2022/06/14 04:00:29;;;;;;;1.65;1.00;;;23.70;45.40;;;;;;4986357;28;20022;-51
2022/06/14 04:03:32;;;;;;;1.30;0.80;;;23.70;45.40;;;;;;5019445;28;20025;-49
2022/06/14 04:06:25;;;;;;;1.02;0.70;;;23.70;45.50;;;;;;5018249;28;20029;-50
2022/06/14 04:09:09;;;;;;;2.95;1.08;;;23.70;45.40;;;;;;5113051;28;20058;-52
2022/06/14 04:12:26;;;;;;;2.70;1.08;;;23.70;45.40;;;;;;5103729;28;20564;-52
2022/06/14 04:15:10;;;;;;;4.88;1.10;;;23.70;45.40;;;;;;5066389;28;20031;-50
2022/06/14 04:17:35;;;;;;;3.50;1.15;;;23.70;45.40;;;;;;5106012;28;20550;-55
2022/06/14 04:20:15;;;;;;;1.08;0.82;;;23.70;45.50;;;;;;5104169;28;20020;-52
2022/06/14 04:23:01;;;;;;;1.48;0.82;;;23.70;45.50;;;;;;5088576;28;20040;-53
2022/06/14 04:25:33;;;;;;;1.85;1.08;;;23.70;45.50;;;;;;5122643;28;20022;-51
2022/06/14 04:28:11;;;;;;;3.33;1.02;;;23.70;45.50;;;;;;5121836;28;20028;-55
2022/06/14 04:30:50;;;;;;;1.30;0.80;;;23.70;45.50;;;;;;5121901;28;20476;-53
2022/06/14 04:33:19;;;;;;;1.60;1.00;;;23.70;45.50;;;;;;5102631;28;20012;-55
2022/06/14 04:36:01;;;;;;;1.85;1.00;;;23.70;45.50;;;;;;5104304;28;20117;-51
2022/06/14 04:38:33;;;;;;;2.38;0.88;;;23.70;45.50;;;;;;5106615;28;20020;-54
2022/06/14 04:41:08;;;;;;;1.75;1.20;;;23.70;45.50;;;;;;5103104;28;20019;-54
2022/06/14 04:43:57;;;;;;;1.88;1.10;;;23.70;45.50;;;;;;5102512;28;20090;-55
2022/06/14 04:46:26;;;;;;;1.27;1.00;;;23.70;45.50;;;;;;5120845;28;20051;-52
2022/06/14 04:49:06;;;;;;;1.60;0.80;;;23.70;45.50;;;;;;5102964;28;20023;-54
2022/06/14 04:51:44;;;;;;;1.58;0.95;;;23.70;45.50;;;;;;5120796;28;20019;-54
2022/06/14 04:54:20;;;;;;;1.15;0.77;;;23.70;45.50;;;;;;5123319;28;20012;-54
2022/06/14 04:57:20;;;;;;;2.00;0.77;;;23.70;45.50;;;;;;5103782;28;20015;-53
2022/06/14 04:59:55;;;;;;;2.13;1.02;;;23.70;45.50;;;;;;5104713;28;20083;-53
2022/06/14 05:02:32;;;;;;;1.90;1.00;;;23.70;45.50;;;;;;5087060;28;20016;-50
2022/06/14 05:05:11;;;;;;;1.73;1.00;;;23.70;45.50;;;;;;5119622;28;20374;-53
2022/06/14 05:07:41;;;;;;;3.03;0.93;;;23.70;45.50;;;;;;5119697;28;20035;-52
2022/06/14 05:10:14;;;;;;;1.27;0.70;;;23.70;45.50;;;;;;5117061;28;20065;-51
2022/06/14 05:13:02;;;;;;;1.63;0.90;;;23.70;45.50;;;;;;5116711;28;20023;-50
2022/06/14 05:15:39;;;;;;;2.92;1.00;;;23.70;45.50;;;;;;5116291;28;20012;-52
2022/06/14 05:18:08;;;;;;;2.28;1.30;;;23.70;45.20;;;;;;5116335;28;20019;-52
2022/06/14 05:20:38;;;;;;;2.53;1.10;;;23.70;45.10;;;;;;5081150;28;20008;-51
2022/06/14 05:23:16;;;;;;;6.55;1.15;;;23.70;45.20;;;;;;5097387;28;20676;-52
2022/06/14 05:26:17;;;;;;;5.30;1.13;;;23.70;45.40;;;;;;5115422;28;20141;-53
2022/06/14 05:29:03;;;;;;;3.33;1.08;;;23.70;45.30;;;;;;5059366;28;20048;-51
2022/06/14 05:31:50;;;;;;;1.50;0.82;;;23.70;45.30;;;;;;5097742;28;20016;-51
2022/06/14 05:34:37;;;;;;;2.67;1.00;;;23.80;45.40;;;;;;5097038;28;20130;-51
2022/06/14 05:37:32;;;;;;;3.22;1.05;;;23.80;45.30;;;;;;5115260;28;20028;-52
2022/06/14 05:40:01;;;;;;;1.80;1.05;;;23.80;45.40;;;;;;5114702;28;20020;-51
2022/06/14 05:42:33;;;;;;;2.53;1.25;;;23.80;45.40;;;;;;5114752;28;20095;-51
2022/06/14 05:45:00;;;;;;;2.97;1.13;;;23.80;45.30;;;;;;5114820;28;20051;-50
2022/06/14 05:47:43;;;;;;;1.88;1.10;;;23.80;45.30;;;;;;5096111;28;20051;-51
2022/06/14 05:50:14;;;;;;;1.63;0.90;;;23.80;45.20;;;;;;5114536;28;20042;-52
2022/06/14 05:53:07;;;;;;;2.90;0.93;;;23.80;45.30;;;;;;5114662;28;20038;-49
2022/06/14 05:55:38;;;;;;;2.30;1.00;;;23.90;45.30;;;;;;5114291;28;20099;-50
2022/06/14 05:58:14;;;;;;;1.73;0.97;;;23.90;45.20;;;;;;5096084;28;20094;-51
2022/06/14 06:00:44;;;;;;;2.58;0.90;;;23.90;45.20;;;;;;5079845;28;20015;-51
2022/06/14 06:03:33;;;;;;;1.88;1.17;;;23.80;45.20;;;;;;5095555;28;20068;-52
2022/06/14 06:06:04;;;;;;;1.05;0.80;;;23.80;45.40;;;;;;5113603;28;20012;-51
2022/06/14 06:08:30;;;;;;;;;;;23.80;45.40;;;;;;5113212;28;20118;-51
2022/06/14 06:10:58;;;;;;;2.58;0.90;;;23.80;45.30;;;;;;5113646;28;20489;-52
2022/06/14 06:14:07;;;;;;;2.10;0.98;;;23.70;45.40;;;;;;5094881;28;20019;-53
2022/06/14 06:16:45;;;;;;;2.08;1.08;;;23.70;45.30;;;;;;5065884;28;20122;-53
2022/06/14 06:19:25;;;;;;;3.78;0.95;;;23.70;45.30;;;;;;5112384;28;20068;-52
2022/06/14 06:21:58;;;;;;;1.53;0.90;;;23.80;45.30;;;;;;5101588;28;20043;-51
2022/06/14 06:24:58;;;;;;;1.65;0.77;;;23.80;45.30;;;;;;5091820;28;20921;-49
2022/06/14 06:27:37;;;;;;;3.08;1.13;;;23.80;45.20;;;;;;5070647;28;20475;-52
2022/06/14 06:30:23;;;;;;;1.75;1.00;;;23.80;45.10;;;;;;5073756;28;20103;-51
2022/06/14 06:32:50;;;;;;;3.92;1.17;;;23.80;45.10;;;;;;5058581;28;20008;-52
2022/06/14 06:35:16;;;;;;;3.13;1.00;;;23.80;45.10;;;;;;5092162;28;20073;-53
2022/06/14 06:37:48;;;;;;;1.45;0.88;;;23.80;45.10;;;;;;5074290;28;20409;-57
2022/06/14 06:41:49;;;;;;;2.08;1.00;;;23.80;45.10;;;;;;5092040;28;20482;-52
2022/06/14 06:43:29;;;;;;;1.73;0.90;;;23.80;45.00;;;;;;5092007;28;20443;-50
2022/06/14 06:45:54;;;;;;;3.65;0.90;;;23.80;45.00;;;;;;5074430;28;20051;-49
2022/06/14 06:48:28;;;;;;;2.05;1.00;;;23.80;45.00;;;;;;5091825;28;20340;-52
2022/06/14 06:50:58;;;;;;;1.60;0.90;;;23.80;45.00;;;;;;5092170;28;20008;-52
2022/06/14 06:53:24;;;;;;;1.58;0.80;;;23.80;45.10;;;;;;5073786;28;20074;-55
2022/06/14 06:56:13;;;;;;;1.65;0.85;;;23.80;45.00;;;;;;5091166;28;20412;-56
2022/06/14 06:58:46;;;;;;;3.92;1.08;;;23.80;45.10;;;;;;5091618;28;20024;-53
2022/06/14 07:01:17;;;;;;;1.42;0.80;;;23.70;45.00;;;;;;5091370;28;20101;-52
2022/06/14 07:03:45;;;;;;;1.70;0.80;;;23.80;45.10;;;;;;5057935;28;20047;-55
2022/06/14 07:06:19;;;;;;;2.88;1.02;;;23.80;45.10;;;;;;5091481;28;20039;-52
2022/06/14 07:09:02;;;;;;;2.08;1.00;;;23.80;45.10;;;;;;5073932;28;20022;-53
2022/06/14 07:11:38;;;;;;;1.85;1.00;;;23.80;45.10;;;;;;5073364;28;20020;-51
2022/06/14 07:14:29;;;;;;;2.35;0.90;;;23.70;45.00;;;;;;5092133;28;20097;-57
2022/06/14 07:17:08;;;;;;;3.63;0.90;;;23.80;45.00;;;;;;5060867;28;20024;-58
2022/06/14 07:19:40;;;;;;;2.60;1.10;;;23.80;45.00;;;;;;5058148;28;20017;-53
2022/06/14 07:22:33;;;;;;;1.35;0.73;;;23.80;45.00;;;;;;5075950;28;20063;-55
2022/06/14 07:25:18;;;;;;;2.13;0.90;;;23.80;44.90;;;;;;5077484;28;20068;-56
2022/06/14 07:28:07;;;;;;;2.08;1.00;;;23.80;45.00;;;;;;5059828;28;20028;-57
2022/06/14 07:30:49;;;;;;;2.05;0.82;;;23.70;44.90;;;;;;5093930;28;20052;-54
2022/06/14 07:33:15;;;;;;;1.98;0.90;;;23.80;44.90;;;;;;5077547;28;20012;-55
2022/06/14 07:35:59;;;;;;;1.67;0.73;;;23.80;44.90;;;;;;5058116;28;20012;-54
2022/06/14 07:38:38;;;;;;;2.65;1.02;;;23.80;44.80;;;;;;5076993;28;20529;-57
2022/06/14 07:41:14;;;;;;;1.27;0.70;;;23.80;44.80;;;;;;5074810;28;20020;-55
2022/06/14 07:43:50;;;;;;;3.35;1.20;;;23.80;44.80;;;;;;5092496;28;20447;-56
2022/06/14 07:46:19;;;;;;;1.70;0.95;;;23.80;44.80;;;;;;5074710;28;20095;-55
2022/06/14 07:48:54;;;;;;;1.60;1.00;;;23.80;44.80;;;;;;5041378;28;20020;-57
2022/06/14 07:51:28;;;;;;;1.60;0.90;;;23.80;44.80;;;;;;5074668;28;20019;-54
2022/06/14 07:54:08;;;;;;;1.30;0.80;;;23.80;44.70;;;;;;5074301;28;20015;-56
2022/06/14 07:56:42;;;;;;;1.52;1.00;;;23.80;44.60;;;;;;5092458;28;20091;-55
2022/06/14 07:59:10;;;;;;;2.88;1.00;;;23.80;44.50;;;;;;5074549;28;20431;-56
2022/06/14 08:01:48;;;;;;;3.25;0.95;;;23.80;44.60;;;;;;5074172;28;20500;-55
2022/06/14 08:04:22;;;;;;;1.15;0.77;;;23.80;44.60;;;;;;5090931;28;20020;-53
2022/06/14 08:06:53;;;;;;;2.70;0.82;;;23.80;44.60;;;;;;5072603;28;20047;-57
2022/06/14 08:09:21;;;;;;;3.35;1.00;;;23.80;44.60;;;;;;5073345;28;20016;-55
2022/06/14 08:11:57;;;;;;;2.33;1.02;;;23.80;44.50;;;;;;5091270;28;20103;-55
2022/06/14 08:14:40;;;;;;;2.83;0.98;;;23.80;44.50;;;;;;5089814;28;20455;-52
2022/06/14 08:17:08;;;;;;;3.03;0.82;;;23.80;44.50;;;;;;5056946;28;20430;-48
2022/06/14 08:19:44;;;;;;;1.55;0.70;;;23.80;44.50;;;;;;5090564;28;20087;-48
2022/06/14 08:22:15;;;;;;;1.50;0.90;;;23.80;44.40;;;;;;5090629;28;20036;-47
2022/06/14 08:24:57;;;;;;;2.05;1.00;;;23.80;44.50;;;;;;5056927;28;20036;-52
2022/06/14 08:27:26;;;;;;;1.38;0.80;;;23.80;44.30;;;;;;5056050;28;20474;-51
2022/06/14 08:30:05;;;;;;;1.98;0.90;;;23.80;44.30;;;;;;5090621;28;20024;-52
2022/06/14 08:32:49;;;;;;;1.33;0.75;;;23.80;44.30;;;;;;5077896;28;20087;-52
2022/06/14 08:35:39;;;;;;;1.85;0.98;;;23.80;44.10;;;;;;5076152;28;20073;-52
2022/06/14 08:38:15;;;;;;;2.03;1.02;;;23.80;44.20;;;;;;5076478;28;20023;-52
2022/06/14 08:40:43;;;;;;;2.15;0.80;;;23.80;44.20;;;;;;5076018;28;20031;-51
2022/06/14 08:43:10;;;;;;;2.40;1.10;;;23.80;44.10;;;;;;5093534;28;20055;-53
2022/06/14 08:45:58;;;;;;;2.35;0.90;;;23.80;44.20;;;;;;5093305;28;20043;-50
2022/06/14 08:48:41;;;;;;;1.58;0.85;;;23.80;44.10;;;;;;5093505;28;20036;-49
2022/06/14 08:51:55;;;;;;;1.73;0.73;;;23.80;44.20;;;;;;5093928;28;20011;-51
2022/06/14 08:54:45;;;;;;;2.42;0.80;;;23.80;44.10;;;;;;5003999;28;20031;-53
2022/06/14 08:57:28;;;;;;;1.55;0.70;;;23.80;44.10;;;;;;5093745;28;20066;-48
2022/06/14 09:00:04;;;;;;;5.00;1.00;;;23.80;44.10;;;;;;5093540;28;20039;-52
2022/06/14 09:03:15;;;;;;;1.60;0.82;;;23.80;44.10;;;;;;5075901;28;20016;-52
2022/06/14 09:05:49;;;;;;;3.50;1.00;;;23.80;44.10;;;;;;5078621;28;20043;-53
2022/06/14 09:08:15;;;;;;;2.78;1.00;;;23.80;44.10;;;;;;5075041;28;20035;-51
2022/06/14 09:10:59;;;;;;;1.67;0.65;;;23.80;44.10;;;;;;5093168;28;20081;-51
2022/06/14 09:13:48;;;;;;;2.28;0.90;;;23.80;44.10;;;;;;5093972;28;20012;-55
2022/06/14 09:16:41;;;;;;;2.80;1.10;;;23.80;43.90;;;;;;5093977;28;20016;-56
2022/06/14 09:19:22;;;;;;;1.30;0.90;;;23.80;43.90;;;;;;5075265;28;20031;-55
2022/06/14 09:21:56;;;;;;;1.95;1.00;;;23.80;43.80;;;;;;5093600;28;20044;-55
2022/06/14 09:24:45;;;;;;;3.85;0.90;;;23.80;43.80;;;;;;5093092;28;20159;-55
2022/06/14 09:27:22;;;;;;;1.42;0.88;;;23.80;43.80;;;;;;5093542;28;20032;-54
2022/06/14 09:30:13;;;;;;;1.77;0.88;;;23.80;43.90;;;;;;5093479;28;20024;-55
2022/06/14 09:35:51;;;;;;;1.10;0.63;;;23.90;43.80;;;;;;5093399;28;20456;-54
2022/06/14 09:38:41;;;;;;;4.60;0.90;;;23.80;43.70;;;;;;5093427;28;20028;-54
2022/06/14 09:41:20;;;;;;;2.25;0.98;;;23.80;43.70;;;;;;5057858;28;20024;-56
2022/06/14 09:44:03;;;;;;;2.72;0.98;;;23.80;43.40;;;;;;5092474;28;20020;-55
2022/06/14 09:46:28;;;;;;;1.75;0.90;;;23.80;42.90;;;;;;5075249;28;20036;-54
2022/06/14 09:49:00;;;;;;;3.40;1.20;;;23.80;42.60;;;;;;5074657;28;20070;-55
2022/06/14 09:51:48;;;;;;;3.55;1.08;;;23.80;42.80;;;;;;5092580;28;20020;-55
2022/06/14 09:54:39;;;;;;;5.50;1.25;;;23.70;42.50;;;;;;5078249;28;20058;-56
2022/06/14 09:57:24;;;;;;;3.50;1.08;;;23.70;41.90;;;;;;5092890;28;20020;-53
2022/06/14 10:00:21;;;;;;;5.03;1.30;;;23.80;41.90;;;;;;5092840;28;20042;-57
2022/06/14 10:02:54;;;;;;;3.88;1.20;;;23.70;41.60;;;;;;5093072;28;20059;-55
2022/06/14 10:05:44;;;;;;;3.53;1.30;;;23.70;41.50;;;;;;5074986;28;20008;-55
2022/06/14 10:08:32;;;;;;;3.92;1.13;;;23.70;41.50;;;;;;5092949;28;20027;-55
2022/06/14 10:11:21;;;;;;;2.63;1.13;;;23.70;40.90;;;;;;5092867;28;20115;-55
2022/06/14 10:13:57;;;;;;;4.57;1.20;;;23.70;41.00;;;;;;5076272;28;20092;-56
2022/06/14 10:16:59;;;;;;;4.47;1.05;;;23.60;40.70;;;;;;5093255;28;20043;-55
2022/06/14 10:19:48;;;;;;;3.33;1.35;;;23.60;40.70;;;;;;5074529;28;20020;-55
2022/06/14 10:22:48;;;;;;;3.30;1.13;;;23.70;40.50;;;;;;5074423;28;20036;-56
2022/06/14 10:25:37;;;;;;;2.80;1.30;;;23.70;40.50;;;;;;5093009;28;20383;-55
2022/06/14 10:28:17;;;;;;;3.25;1.23;;;23.70;40.30;;;;;;5075306;28;20039;-54
2022/06/14 10:31:09;;;;;;;3.15;1.02;;;23.70;40.10;;;;;;5074875;28;20024;-58
2022/06/14 10:33:52;;;;;;;4.95;1.10;;;23.70;40.30;;;;;;5059304;28;20012;-54
2022/06/14 10:36:18;;;;;;;3.03;0.95;;;23.70;40.30;;;;;;5075180;28;20009;-55
2022/06/14 10:39:12;;;;;;;4.45;1.17;;;23.70;40.20;;;;;;5092815;28;20028;-57
2022/06/14 10:41:56;;;;;;;2.55;1.35;;;23.70;40.10;;;;;;5092858;28;20012;-56
2022/06/14 10:44:42;;;;;;;4.05;1.30;;;23.70;40.00;;;;;;5091796;28;20016;-57
2022/06/14 10:47:20;;;;;;;3.70;1.30;;;23.70;39.90;;;;;;5073937;28;20020;-64
2022/06/14 10:49:55;;;;;;;3.63;1.00;;;23.70;40.00;;;;;;5073545;28;20026;-55
2022/06/14 10:52:41;;;;;;;5.30;0.90;;;23.70;39.90;;;;;;5091557;28;20087;-59
2022/06/14 10:55:45;;;;;;;4.47;1.15;;;23.70;39.80;;;;;;5091677;28;20023;-57
2022/06/14 10:58:41;;;;;;;2.35;1.02;;;23.60;39.70;;;;;;5092357;28;20475;-58
2022/06/14 11:01:29;;;;;;;2.92;1.45;;;23.60;39.70;;;;;;5091976;28;20043;-57
2022/06/14 11:04:09;;;;;;;3.33;1.45;;;23.60;39.80;;;;;;5073585;28;20023;-56
2022/06/14 11:07:02;;;;;;;7.75;1.42;;;23.60;39.70;;;;;;5058215;28;20020;-55
2022/06/14 11:09:52;;;;;;;4.15;1.50;;;23.60;39.60;;;;;;5091627;28;20093;-57
2022/06/14 11:12:49;;;;;;;2.40;0.90;;;23.60;39.60;;;;;;5091845;28;20012;-57
2022/06/14 11:15:43;;;;;;;2.97;1.25;;;23.60;39.60;;;;;;5091955;28;20012;-54
2022/06/14 11:18:52;;;;;;;5.22;1.33;;;23.60;39.40;;;;;;5091792;28;20021;-55
2022/06/14 11:21:29;;;;;;;3.95;1.48;;;23.60;39.30;;;;;;5009584;28;20105;-56
2022/06/14 11:23:54;;;;;;;3.78;1.17;;;23.60;39.20;;;;;;4976746;28;20445;-56
2022/06/14 11:26:26;;;;;;;3.85;1.20;;;23.60;39.30;;;;;;5010056;28;20108;-52
2022/06/14 11:29:07;;;;;;;5.53;1.42;;;23.60;39.20;;;;;;5010231;28;20038;-54
2022/06/14 11:31:58;;;;;;;5.03;1.10;;;23.60;39.20;;;;;;5009903;28;20089;-54
2022/06/14 11:34:43;;;;;;;4.05;1.30;;;23.60;39.20;;;;;;4993649;28;20426;-57
2022/06/14 11:37:17;;;;;;;4.47;1.27;;;23.60;39.00;;;;;;5012774;28;20036;-57
2022/06/14 11:39:48;;;;;;;3.72;1.42;;;23.60;39.00;;;;;;5012104;28;20014;-57
2022/06/14 11:42:18;;;;;;;4.03;1.27;;;23.60;39.00;;;;;;5029673;28;20444;-57
2022/06/14 11:44:47;;;;;;;2.92;1.13;;;23.60;39.00;;;;;;5029672;28;20025;-57
2022/06/14 11:47:18;;;;;;;7.60;1.58;;;23.60;39.00;;;;;;5029965;28;20029;-57
2022/06/14 11:50:21;;;;;;;4.43;1.45;;;23.60;39.00;;;;;;5030186;28;20034;-57
2022/06/14 11:53:06;;;;;;;5.68;1.60;;;23.60;39.00;;;;;;5030198;28;20053;-58
2022/06/14 11:55:50;;;;;;;4.30;1.45;;;23.70;39.10;;;;;;5067202;28;20097;-57
2022/06/14 11:58:47;;;;;;;5.28;1.40;;;23.70;38.90;;;;;;5092446;28;20020;-60
2022/06/14 12:01:38;;;;;;;3.78;1.40;;;23.70;39.00;;;;;;5090810;28;20128;-57
2022/06/14 12:04:27;;;;;;;4.85;1.48;;;23.70;38.80;;;;;;5092391;28;20071;-58
2022/06/14 12:06:53;;;;;;;4.32;1.30;;;23.70;38.90;;;;;;5077584;28;20024;-57
2022/06/14 12:09:44;;;;;;;2.63;1.27;;;23.70;38.80;;;;;;5096694;28;20147;-57
2022/06/14 12:12:26;;;;;;;4.03;1.05;;;23.70;38.70;;;;;;5095909;28;20020;-57
2022/06/14 12:15:04;;;;;;;8.10;1.35;;;23.70;38.70;;;;;;5095231;28;20095;-53
2022/06/14 12:17:49;;;;;;;4.65;1.50;;;23.60;38.80;;;;;;5060704;28;20102;-56
2022/06/14 12:20:20;;;;;;;3.03;1.17;;;23.60;38.70;;;;;;5060043;28;20024;-55
2022/06/14 12:23:07;;;;;;;5.15;1.50;;;23.70;38.70;;;;;;5076567;28;20048;-56
2022/06/14 12:28:46;;;;;;;3.83;1.55;;;23.70;38.70;;;;;;5095192;28;20727;-55
2022/06/14 12:31:18;;;;;;;3.58;1.30;;;23.70;38.70;;;;;;5076348;28;20016;-55
2022/06/14 12:33:53;;;;;;;3.58;1.50;;;23.70;38.70;;;;;;5077223;28;20086;-54
2022/06/14 12:36:22;;;;;;;2.45;1.20;;;23.70;38.50;;;;;;5077166;28;20012;-54
2022/06/14 12:38:48;;;;;;;3.95;1.33;;;23.70;38.20;;;;;;5060026;28;20023;-55
2022/06/14 12:41:20;;;;;;;2.95;1.30;;;23.70;38.50;;;;;;5061221;28;20020;-55
2022/06/14 12:44:02;;;;;;;6.28;1.67;;;23.70;38.50;;;;;;5077269;28;20095;-53
2022/06/14 12:46:30;;;;;;;4.65;1.35;;;23.80;38.50;;;;;;5077084;28;20533;-56
2022/06/14 12:49:02;;;;;;;4.07;1.20;;;23.80;38.40;;;;;;5061388;28;20029;-56
2022/06/14 12:51:35;;;;;;;5.60;1.60;;;23.70;38.30;;;;;;5095023;28;20044;-55
2022/06/14 12:54:22;;;;;;;4.63;1.38;;;23.70;38.30;;;;;;5078124;28;20018;-56
2022/06/14 12:56:58;;;;;;;4.15;1.50;;;23.70;38.20;;;;;;5076556;28;20013;-54
2022/06/14 12:59:27;;;;;;;3.63;1.27;;;23.80;38.20;;;;;;5077544;28;20039;-53
2022/06/14 13:02:15;;;;;;;3.13;1.00;;;23.80;38.30;;;;;;5094363;28;20008;-49
2022/06/14 13:04:44;;;;;;;5.40;1.48;;;23.80;38.30;;;;;;5076090;28;20020;-48
2022/06/14 13:07:37;;;;;;;3.35;1.30;;;23.90;38.20;;;;;;5076174;28;20008;-52
2022/06/14 13:10:08;;;;;;;5.80;1.38;;;23.90;38.20;;;;;;5094335;28;20467;-53
2022/06/14 13:12:49;;;;;;;6.43;1.45;;;23.90;38.10;;;;;;5094864;28;20016;-53
2022/06/14 13:15:25;;;;;;;4.30;1.67;;;23.90;37.70;;;;;;5094478;28;20027;-48
2022/06/14 13:18:17;;;;;;;3.75;1.10;;;23.90;38.10;;;;;;5075714;28;20463;-50
2022/06/14 13:20:57;;;;;;;2.88;1.40;;;24.00;38.10;;;;;;5012133;28;20068;-50
2022/06/14 13:23:50;;;;;;;2.83;1.03;;;24.00;38.10;;;;;;4979988;28;20580;-49
2022/06/14 13:26:38;;;;;;;3.10;1.17;;;24.00;38.10;;;;;;4993331;28;20030;-48
2022/06/14 13:29:13;;;;;;;4.47;1.35;;;24.00;37.90;;;;;;4993119;28;20448;-47
2022/06/14 13:32:17;;;;;;;2.28;1.05;;;24.00;38.00;;;;;;4977612;28;20031;-48
2022/06/14 13:34:52;;;;;;;3.28;1.10;;;24.10;37.90;;;;;;4980930;28;20038;-51
2022/06/14 13:37:41;;;;;;;4.18;1.10;;;24.10;37.70;;;;;;4977738;28;20553;-46
2022/06/14 13:40:20;;;;;;;3.45;1.40;;;24.10;37.80;;;;;;4978112;28;20037;-48
2022/06/14 13:42:57;;;;;;;5.90;1.23;;;24.10;37.60;;;;;;4993424;28;20034;-50
2022/06/14 13:45:43;;;;;;;3.42;1.20;;;24.10;37.50;;;;;;4993498;28;20128;-53
2022/06/14 13:48:14;;;;;;;4.25;1.40;;;24.20;37.40;;;;;;4976984;28;20109;-51
2022/06/14 13:50:45;;;;;;;3.17;1.48;;;24.20;37.80;;;;;;4993351;28;20572;-51
2022/06/14 13:53:35;;;;;;;3.95;1.40;;;24.20;37.10;;;;;;4977154;28;20025;-51
2022/06/14 13:56:05;;;;;;;4.55;1.33;;;24.30;37.10;;;;;;4976746;28;20492;-51
2022/06/14 13:59:05;;;;;;;2.72;1.23;;;24.30;36.80;;;;;;5043022;28;20486;-51